sensor_id;sensor_type;location;lat;lon;timestamp;P1;durP1;ratioP1;P2;durP2;ratioP2
74401;SDS011;62837;51.082;13.744;2023-03-01T00:02:18;18.60;;;9.20;;
74401;SDS011;62837;51.082;13.744;2023-03-01T00:04:49;18.30;;;9.80;;
74401;SDS011;62837;51.082;13.744;2023-03-01T00:07:20;20.00;;;10.40;;
74401;SDS011;62837;51.082;13.744;2023-03-01T00:09:51;18.60;;;9.50;;
74401;SDS011;62837;51.082;13.744;2023-03-01T00:12:22;11.80;;;5.10;;
74401;SDS011;62837;51.082;13.744;2023-03-01T00:14:53;19.60;;;8.80;;
74401;SDS011;62837;51.082;13.744;2023-03-01T00:17:24;24.10;;;10.60;;
74401;SDS011;62837;51.082;13.744;2023-03-01T00:19:56;20.30;;;9.70;;
74401;SDS011;62837;51.082;13.744;2023-03-01T00:22:27;19.50;;;9.40;;
74401;SDS011;62837;51.082;13.744;2023-03-01T00:24:58;19.90;;;11.00;;
74401;SDS011;62837;51.082;13.744;2023-03-01T00:27:28;22.70;;;11.60;;
74401;SDS011;62837;51.082;13.744;2023-03-01T00:29:59;22.70;;;10.70;;
74401;SDS011;62837;51.082;13.744;2023-03-01T00:32:30;20.00;;;9.10;;
74401;SDS011;62837;51.082;13.744;2023-03-01T00:35:01;13.70;;;6.90;;
74401;SDS011;62837;51.082;13.744;2023-03-01T00:37:33;20.30;;;10.20;;
74401;SDS011;62837;51.082;13.744;2023-03-01T00:40:05;21.70;;;10.50;;
74401;SDS011;62837;51.082;13.744;2023-03-01T00:42:38;18.50;;;8.60;;
74401;SDS011;62837;51.082;13.744;2023-03-01T00:45:09;15.50;;;7.70;;
74401;SDS011;62837;51.082;13.744;2023-03-01T00:47:41;18.80;;;8.40;;
74401;SDS011;62837;51.082;13.744;2023-03-01T00:50:12;16.10;;;8.50;;
74401;SDS011;62837;51.082;13.744;2023-03-01T00:52:44;15.20;;;7.30;;
74401;SDS011;62837;51.082;13.744;2023-03-01T00:55:16;15.20;;;7.40;;
74401;SDS011;62837;51.082;13.744;2023-03-01T00:57:46;12.50;;;6.80;;
74401;SDS011;62837;51.082;13.744;2023-03-01T01:00:21;11.80;;;4.80;;
74401;SDS011;62837;51.082;13.744;2023-03-01T01:02:56;16.20;;;6.90;;
74401;SDS011;62837;51.082;13.744;2023-03-01T01:05:26;11.30;;;5.40;;
74401;SDS011;62837;51.082;13.744;2023-03-01T01:07:57;10.80;;;5.30;;
74401;SDS011;62837;51.082;13.744;2023-03-01T01:10:28;12.00;;;5.50;;
74401;SDS011;62837;51.082;13.744;2023-03-01T01:12:58;12.40;;;5.40;;
74401;SDS011;62837;51.082;13.744;2023-03-01T01:15:31;12.40;;;6.70;;
74401;SDS011;62837;51.082;13.744;2023-03-01T01:18:03;18.40;;;8.80;;
74401;SDS011;62837;51.082;13.744;2023-03-01T01:20:36;11.00;;;5.30;;
74401;SDS011;62837;51.082;13.744;2023-03-01T01:23:06;18.90;;;8.20;;
74401;SDS011;62837;51.082;13.744;2023-03-01T01:25:37;10.50;;;5.30;;
74401;SDS011;62837;51.082;13.744;2023-03-01T01:28:08;17.50;;;8.40;;
74401;SDS011;62837;51.082;13.744;2023-03-01T01:30:38;16.70;;;7.80;;
74401;SDS011;62837;51.082;13.744;2023-03-01T01:33:09;8.90;;;4.40;;
74401;SDS011;62837;51.082;13.744;2023-03-01T01:35:40;10.50;;;5.20;;
74401;SDS011;62837;51.082;13.744;2023-03-01T01:38:13;9.20;;;4.90;;
74401;SDS011;62837;51.082;13.744;2023-03-01T01:40:44;8.00;;;3.90;;
74401;SDS011;62837;51.082;13.744;2023-03-01T01:43:18;13.00;;;5.00;;
74401;SDS011;62837;51.082;13.744;2023-03-01T01:45:51;17.30;;;7.50;;
74401;SDS011;62837;51.082;13.744;2023-03-01T01:48:26;16.80;;;7.70;;
74401;SDS011;62837;51.082;13.744;2023-03-01T01:51:09;12.50;;;5.90;;
74401;SDS011;62837;51.082;13.744;2023-03-01T01:53:42;17.60;;;7.50;;
74401;SDS011;62837;51.082;13.744;2023-03-01T01:56:14;14.70;;;6.80;;
74401;SDS011;62837;51.082;13.744;2023-03-01T01:58:48;12.90;;;5.00;;
74401;SDS011;62837;51.082;13.744;2023-03-01T02:01:19;9.90;;;5.10;;
74401;SDS011;62837;51.082;13.744;2023-03-01T02:03:50;10.10;;;4.30;;
74401;SDS011;62837;51.082;13.744;2023-03-01T02:06:22;14.80;;;6.50;;
74401;SDS011;62837;51.082;13.744;2023-03-01T02:09:00;11.80;;;6.30;;
74401;SDS011;62837;51.082;13.744;2023-03-01T02:11:34;15.90;;;7.60;;
74401;SDS011;62837;51.082;13.744;2023-03-01T02:14:06;14.50;;;7.30;;
74401;SDS011;62837;51.082;13.744;2023-03-01T02:16:37;15.20;;;7.60;;
74401;SDS011;62837;51.082;13.744;2023-03-01T02:19:09;15.50;;;7.60;;
74401;SDS011;62837;51.082;13.744;2023-03-01T02:21:48;13.50;;;6.60;;
74401;SDS011;62837;51.082;13.744;2023-03-01T02:24:28;10.80;;;4.60;;
74401;SDS011;62837;51.082;13.744;2023-03-01T02:27:06;12.10;;;6.30;;
74401;SDS011;62837;51.082;13.744;2023-03-01T02:29:38;15.00;;;7.30;;
74401;SDS011;62837;51.082;13.744;2023-03-01T02:32:11;15.40;;;5.90;;
74401;SDS011;62837;51.082;13.744;2023-03-01T02:34:43;19.80;;;9.00;;
74401;SDS011;62837;51.082;13.744;2023-03-01T02:37:15;11.80;;;6.30;;
74401;SDS011;62837;51.082;13.744;2023-03-01T02:39:53;12.00;;;5.90;;
74401;SDS011;62837;51.082;13.744;2023-03-01T02:42:30;12.70;;;6.10;;
74401;SDS011;62837;51.082;13.744;2023-03-01T02:45:06;12.50;;;5.90;;
74401;SDS011;62837;51.082;13.744;2023-03-01T02:47:38;16.50;;;7.80;;
74401;SDS011;62837;51.082;13.744;2023-03-01T02:50:22;16.00;;;7.80;;
74401;SDS011;62837;51.082;13.744;2023-03-01T02:53:12;14.10;;;7.10;;
74401;SDS011;62837;51.082;13.744;2023-03-01T02:55:52;12.70;;;7.10;;
74401;SDS011;62837;51.082;13.744;2023-03-01T02:58:24;14.30;;;6.70;;
74401;SDS011;62837;51.082;13.744;2023-03-01T03:00:56;17.80;;;8.60;;
74401;SDS011;62837;51.082;13.744;2023-03-01T03:03:28;17.10;;;7.80;;
74401;SDS011;62837;51.082;13.744;2023-03-01T03:05:59;15.20;;;6.00;;
74401;SDS011;62837;51.082;13.744;2023-03-01T03:08:30;15.70;;;6.10;;
74401;SDS011;62837;51.082;13.744;2023-03-01T03:11:01;13.70;;;7.10;;
74401;SDS011;62837;51.082;13.744;2023-03-01T03:13:32;14.80;;;7.70;;
74401;SDS011;62837;51.082;13.744;2023-03-01T03:16:03;17.90;;;8.90;;
74401;SDS011;62837;51.082;13.744;2023-03-01T03:18:35;14.60;;;7.10;;
74401;SDS011;62837;51.082;13.744;2023-03-01T03:21:08;16.90;;;7.80;;
74401;SDS011;62837;51.082;13.744;2023-03-01T03:23:39;16.90;;;7.90;;
74401;SDS011;62837;51.082;13.744;2023-03-01T03:26:10;15.80;;;7.80;;
74401;SDS011;62837;51.082;13.744;2023-03-01T03:28:42;9.90;;;5.50;;
74401;SDS011;62837;51.082;13.744;2023-03-01T03:31:14;14.10;;;6.30;;
74401;SDS011;62837;51.082;13.744;2023-03-01T03:33:45;11.40;;;6.40;;
74401;SDS011;62837;51.082;13.744;2023-03-01T03:36:16;5.70;;;3.30;;
74401;SDS011;62837;51.082;13.744;2023-03-01T03:38:48;15.90;;;7.90;;
74401;SDS011;62837;51.082;13.744;2023-03-01T03:41:19;22.20;;;8.60;;
74401;SDS011;62837;51.082;13.744;2023-03-01T03:43:50;13.20;;;7.40;;
74401;SDS011;62837;51.082;13.744;2023-03-01T03:46:21;14.80;;;7.70;;
74401;SDS011;62837;51.082;13.744;2023-03-01T03:48:52;13.50;;;7.40;;
74401;SDS011;62837;51.082;13.744;2023-03-01T03:51:22;15.30;;;7.20;;
74401;SDS011;62837;51.082;13.744;2023-03-01T03:53:53;8.40;;;2.80;;
74401;SDS011;62837;51.082;13.744;2023-03-01T03:56:24;11.80;;;5.50;;
74401;SDS011;62837;51.082;13.744;2023-03-01T03:58:55;12.80;;;6.50;;
74401;SDS011;62837;51.082;13.744;2023-03-01T04:01:26;14.60;;;6.70;;
74401;SDS011;62837;51.082;13.744;2023-03-01T04:03:57;6.50;;;4.10;;
74401;SDS011;62837;51.082;13.744;2023-03-01T04:06:31;12.60;;;5.90;;
74401;SDS011;62837;51.082;13.744;2023-03-01T04:09:02;16.00;;;7.90;;
74401;SDS011;62837;51.082;13.744;2023-03-01T04:11:33;19.00;;;10.30;;
74401;SDS011;62837;51.082;13.744;2023-03-01T04:14:06;16.10;;;8.70;;
74401;SDS011;62837;51.082;13.744;2023-03-01T04:16:38;14.80;;;8.30;;
74401;SDS011;62837;51.082;13.744;2023-03-01T04:19:09;14.40;;;6.50;;
74401;SDS011;62837;51.082;13.744;2023-03-01T04:21:40;8.70;;;4.60;;
74401;SDS011;62837;51.082;13.744;2023-03-01T04:24:10;18.90;;;8.90;;
74401;SDS011;62837;51.082;13.744;2023-03-01T04:26:41;15.80;;;7.50;;
74401;SDS011;62837;51.082;13.744;2023-03-01T04:29:12;14.30;;;7.40;;
74401;SDS011;62837;51.082;13.744;2023-03-01T04:31:43;18.10;;;9.90;;
74401;SDS011;62837;51.082;13.744;2023-03-01T04:34:14;13.50;;;6.40;;
74401;SDS011;62837;51.082;13.744;2023-03-01T04:36:44;11.30;;;6.40;;
74401;SDS011;62837;51.082;13.744;2023-03-01T04:39:15;19.40;;;9.50;;
74401;SDS011;62837;51.082;13.744;2023-03-01T04:41:46;14.20;;;8.00;;
74401;SDS011;62837;51.082;13.744;2023-03-01T04:44:17;20.50;;;8.50;;
74401;SDS011;62837;51.082;13.744;2023-03-01T04:46:49;20.80;;;10.10;;
74401;SDS011;62837;51.082;13.744;2023-03-01T04:49:20;21.60;;;10.50;;
74401;SDS011;62837;51.082;13.744;2023-03-01T04:51:51;20.00;;;10.60;;
74401;SDS011;62837;51.082;13.744;2023-03-01T04:54:21;16.50;;;7.00;;
74401;SDS011;62837;51.082;13.744;2023-03-01T04:56:52;14.00;;;6.40;;
74401;SDS011;62837;51.082;13.744;2023-03-01T04:59:23;15.80;;;7.30;;
74401;SDS011;62837;51.082;13.744;2023-03-01T05:01:54;11.10;;;6.10;;
74401;SDS011;62837;51.082;13.744;2023-03-01T05:04:26;18.30;;;7.90;;
74401;SDS011;62837;51.082;13.744;2023-03-01T05:06:56;27.10;;;11.30;;
74401;SDS011;62837;51.082;13.744;2023-03-01T05:09:27;16.40;;;7.90;;
74401;SDS011;62837;51.082;13.744;2023-03-01T05:11:58;12.80;;;7.30;;
74401;SDS011;62837;51.082;13.744;2023-03-01T05:14:29;10.90;;;5.20;;
74401;SDS011;62837;51.082;13.744;2023-03-01T05:16:59;14.10;;;6.90;;
74401;SDS011;62837;51.082;13.744;2023-03-01T05:19:31;13.10;;;5.80;;
74401;SDS011;62837;51.082;13.744;2023-03-01T05:22:02;17.60;;;9.30;;
74401;SDS011;62837;51.082;13.744;2023-03-01T05:24:34;12.10;;;6.30;;
74401;SDS011;62837;51.082;13.744;2023-03-01T05:27:06;17.80;;;9.70;;
74401;SDS011;62837;51.082;13.744;2023-03-01T05:29:37;10.40;;;5.30;;
74401;SDS011;62837;51.082;13.744;2023-03-01T05:32:07;20.30;;;9.10;;
74401;SDS011;62837;51.082;13.744;2023-03-01T05:34:43;18.20;;;7.30;;
74401;SDS011;62837;51.082;13.744;2023-03-01T05:37:14;15.00;;;7.20;;
74401;SDS011;62837;51.082;13.744;2023-03-01T05:39:45;15.80;;;5.70;;
74401;SDS011;62837;51.082;13.744;2023-03-01T05:42:18;14.00;;;7.40;;
74401;SDS011;62837;51.082;13.744;2023-03-01T05:44:48;13.20;;;5.90;;
74401;SDS011;62837;51.082;13.744;2023-03-01T05:47:19;17.80;;;6.70;;
74401;SDS011;62837;51.082;13.744;2023-03-01T05:49:50;16.80;;;7.50;;
74401;SDS011;62837;51.082;13.744;2023-03-01T05:52:21;19.80;;;7.50;;
74401;SDS011;62837;51.082;13.744;2023-03-01T05:54:51;16.40;;;7.60;;
74401;SDS011;62837;51.082;13.744;2023-03-01T05:57:23;13.70;;;5.70;;
74401;SDS011;62837;51.082;13.744;2023-03-01T05:59:53;12.40;;;5.60;;
74401;SDS011;62837;51.082;13.744;2023-03-01T06:02:24;9.10;;;3.20;;
74401;SDS011;62837;51.082;13.744;2023-03-01T06:04:57;23.10;;;9.50;;
74401;SDS011;62837;51.082;13.744;2023-03-01T06:07:27;13.50;;;6.20;;
74401;SDS011;62837;51.082;13.744;2023-03-01T06:09:58;19.40;;;8.20;;
74401;SDS011;62837;51.082;13.744;2023-03-01T06:12:31;11.20;;;6.20;;
74401;SDS011;62837;51.082;13.744;2023-03-01T06:15:03;13.50;;;6.80;;
74401;SDS011;62837;51.082;13.744;2023-03-01T06:17:38;20.40;;;8.10;;
74401;SDS011;62837;51.082;13.744;2023-03-01T06:20:12;18.70;;;9.00;;
74401;SDS011;62837;51.082;13.744;2023-03-01T06:22:44;14.40;;;5.90;;
74401;SDS011;62837;51.082;13.744;2023-03-01T06:25:17;10.30;;;5.20;;
74401;SDS011;62837;51.082;13.744;2023-03-01T06:27:50;22.70;;;7.90;;
74401;SDS011;62837;51.082;13.744;2023-03-01T06:30:22;28.40;;;8.40;;
74401;SDS011;62837;51.082;13.744;2023-03-01T06:32:53;22.50;;;9.40;;
74401;SDS011;62837;51.082;13.744;2023-03-01T06:35:29;22.50;;;8.80;;
74401;SDS011;62837;51.082;13.744;2023-03-01T06:38:00;34.80;;;9.60;;
74401;SDS011;62837;51.082;13.744;2023-03-01T06:40:32;12.40;;;5.20;;
74401;SDS011;62837;51.082;13.744;2023-03-01T06:43:04;33.90;;;12.10;;
74401;SDS011;62837;51.082;13.744;2023-03-01T06:45:36;28.20;;;8.40;;
74401;SDS011;62837;51.082;13.744;2023-03-01T06:48:06;17.00;;;5.90;;
74401;SDS011;62837;51.082;13.744;2023-03-01T06:50:37;30.90;;;12.00;;
74401;SDS011;62837;51.082;13.744;2023-03-01T06:53:08;25.20;;;7.60;;
74401;SDS011;62837;51.082;13.744;2023-03-01T06:55:39;31.90;;;13.50;;
74401;SDS011;62837;51.082;13.744;2023-03-01T06:58:10;27.00;;;12.00;;
74401;SDS011;62837;51.082;13.744;2023-03-01T07:00:41;21.20;;;8.70;;
74401;SDS011;62837;51.082;13.744;2023-03-01T07:03:12;13.60;;;7.00;;
74401;SDS011;62837;51.082;13.744;2023-03-01T07:05:42;17.50;;;6.40;;
74401;SDS011;62837;51.082;13.744;2023-03-01T07:08:13;30.40;;;11.60;;
74401;SDS011;62837;51.082;13.744;2023-03-01T07:10:44;22.70;;;11.00;;
74401;SDS011;62837;51.082;13.744;2023-03-01T07:13:16;21.40;;;11.80;;
74401;SDS011;62837;51.082;13.744;2023-03-01T07:15:47;24.80;;;11.40;;
74401;SDS011;62837;51.082;13.744;2023-03-01T07:18:18;33.80;;;12.40;;
74401;SDS011;62837;51.082;13.744;2023-03-01T07:20:49;13.30;;;7.30;;
74401;SDS011;62837;51.082;13.744;2023-03-01T07:23:19;9.20;;;5.10;;
74401;SDS011;62837;51.082;13.744;2023-03-01T07:25:54;29.60;;;13.80;;
74401;SDS011;62837;51.082;13.744;2023-03-01T07:28:25;17.90;;;10.20;;
74401;SDS011;62837;51.082;13.744;2023-03-01T07:30:58;21.10;;;12.00;;
74401;SDS011;62837;51.082;13.744;2023-03-01T07:33:31;19.50;;;10.80;;
74401;SDS011;62837;51.082;13.744;2023-03-01T07:36:02;19.80;;;10.80;;
74401;SDS011;62837;51.082;13.744;2023-03-01T07:38:34;17.70;;;9.10;;
74401;SDS011;62837;51.082;13.744;2023-03-01T07:41:05;20.50;;;10.30;;
74401;SDS011;62837;51.082;13.744;2023-03-01T07:43:35;22.10;;;12.80;;
74401;SDS011;62837;51.082;13.744;2023-03-01T07:46:06;22.10;;;12.80;;
74401;SDS011;62837;51.082;13.744;2023-03-01T07:48:37;20.00;;;10.60;;
74401;SDS011;62837;51.082;13.744;2023-03-01T07:51:09;21.80;;;12.00;;
74401;SDS011;62837;51.082;13.744;2023-03-01T07:53:40;18.60;;;10.80;;
74401;SDS011;62837;51.082;13.744;2023-03-01T07:56:11;19.40;;;11.40;;
74401;SDS011;62837;51.082;13.744;2023-03-01T07:58:45;19.60;;;11.30;;
74401;SDS011;62837;51.082;13.744;2023-03-01T08:01:18;19.50;;;10.70;;
74401;SDS011;62837;51.082;13.744;2023-03-01T08:03:50;23.00;;;13.00;;
74401;SDS011;62837;51.082;13.744;2023-03-01T08:06:21;24.60;;;13.80;;
74401;SDS011;62837;51.082;13.744;2023-03-01T08:08:51;20.90;;;11.60;;
74401;SDS011;62837;51.082;13.744;2023-03-01T08:11:23;20.40;;;10.60;;
74401;SDS011;62837;51.082;13.744;2023-03-01T08:13:55;19.70;;;11.70;;
74401;SDS011;62837;51.082;13.744;2023-03-01T08:16:27;18.20;;;10.20;;
74401;SDS011;62837;51.082;13.744;2023-03-01T08:19:02;16.30;;;8.50;;
74401;SDS011;62837;51.082;13.744;2023-03-01T08:21:35;17.40;;;10.20;;
74401;SDS011;62837;51.082;13.744;2023-03-01T08:24:06;16.10;;;10.00;;
74401;SDS011;62837;51.082;13.744;2023-03-01T08:26:39;19.80;;;12.30;;
74401;SDS011;62837;51.082;13.744;2023-03-01T08:29:09;19.30;;;10.50;;
74401;SDS011;62837;51.082;13.744;2023-03-01T08:31:40;20.80;;;11.60;;
74401;SDS011;62837;51.082;13.744;2023-03-01T08:34:12;16.90;;;10.30;;
74401;SDS011;62837;51.082;13.744;2023-03-01T08:36:44;18.50;;;11.50;;
74401;SDS011;62837;51.082;13.744;2023-03-01T08:39:19;18.70;;;12.00;;
74401;SDS011;62837;51.082;13.744;2023-03-01T08:41:50;20.90;;;10.80;;
74401;SDS011;62837;51.082;13.744;2023-03-01T08:44:21;17.00;;;10.80;;
74401;SDS011;62837;51.082;13.744;2023-03-01T08:46:52;19.00;;;12.00;;
74401;SDS011;62837;51.082;13.744;2023-03-01T08:49:23;16.40;;;9.70;;
74401;SDS011;62837;51.082;13.744;2023-03-01T08:51:54;18.60;;;11.30;;
74401;SDS011;62837;51.082;13.744;2023-03-01T08:54:25;18.90;;;11.20;;
74401;SDS011;62837;51.082;13.744;2023-03-01T08:56:56;23.00;;;13.50;;
74401;SDS011;62837;51.082;13.744;2023-03-01T08:59:28;20.10;;;12.00;;
74401;SDS011;62837;51.082;13.744;2023-03-01T09:02:03;17.30;;;10.80;;
74401;SDS011;62837;51.082;13.744;2023-03-01T09:04:34;17.70;;;11.70;;
74401;SDS011;62837;51.082;13.744;2023-03-01T09:07:05;21.90;;;12.10;;
74401;SDS011;62837;51.082;13.744;2023-03-01T09:09:36;19.60;;;12.10;;
74401;SDS011;62837;51.082;13.744;2023-03-01T09:12:08;19.10;;;11.60;;
74401;SDS011;62837;51.082;13.744;2023-03-01T09:14:39;20.10;;;11.20;;
74401;SDS011;62837;51.082;13.744;2023-03-01T09:17:09;16.30;;;10.40;;
74401;SDS011;62837;51.082;13.744;2023-03-01T09:19:40;18.00;;;10.50;;
74401;SDS011;62837;51.082;13.744;2023-03-01T09:22:11;19.50;;;11.50;;
74401;SDS011;62837;51.082;13.744;2023-03-01T09:24:42;21.30;;;12.60;;
74401;SDS011;62837;51.082;13.744;2023-03-01T09:27:12;20.80;;;12.30;;
74401;SDS011;62837;51.082;13.744;2023-03-01T09:29:46;17.70;;;11.40;;
74401;SDS011;62837;51.082;13.744;2023-03-01T09:32:17;21.20;;;12.80;;
74401;SDS011;62837;51.082;13.744;2023-03-01T09:34:47;22.40;;;12.60;;
74401;SDS011;62837;51.082;13.744;2023-03-01T09:37:33;19.90;;;11.10;;
74401;SDS011;62837;51.082;13.744;2023-03-01T09:40:06;20.60;;;12.20;;
74401;SDS011;62837;51.082;13.744;2023-03-01T09:42:48;20.00;;;11.40;;
74401;SDS011;62837;51.082;13.744;2023-03-01T09:45:27;23.40;;;13.50;;
74401;SDS011;62837;51.082;13.744;2023-03-01T09:48:03;21.00;;;12.00;;
74401;SDS011;62837;51.082;13.744;2023-03-01T09:50:39;17.60;;;10.40;;
74401;SDS011;62837;51.082;13.744;2023-03-01T09:53:15;18.80;;;12.20;;
74401;SDS011;62837;51.082;13.744;2023-03-01T09:55:48;18.40;;;10.90;;
74401;SDS011;62837;51.082;13.744;2023-03-01T09:58:33;20.60;;;12.00;;
74401;SDS011;62837;51.082;13.744;2023-03-01T10:01:20;21.00;;;12.10;;
74401;SDS011;62837;51.082;13.744;2023-03-01T10:04:02;16.20;;;10.60;;
74401;SDS011;62837;51.082;13.744;2023-03-01T10:06:41;20.60;;;11.90;;
74401;SDS011;62837;51.082;13.744;2023-03-01T10:09:20;21.10;;;12.30;;
74401;SDS011;62837;51.082;13.744;2023-03-01T10:11:52;19.30;;;12.10;;
74401;SDS011;62837;51.082;13.744;2023-03-01T10:14:29;18.80;;;10.50;;
74401;SDS011;62837;51.082;13.744;2023-03-01T10:17:03;21.10;;;11.40;;
74401;SDS011;62837;51.082;13.744;2023-03-01T10:19:41;21.40;;;12.00;;
74401;SDS011;62837;51.082;13.744;2023-03-01T10:22:15;23.70;;;12.10;;
74401;SDS011;62837;51.082;13.744;2023-03-01T10:24:48;18.70;;;10.60;;
74401;SDS011;62837;51.082;13.744;2023-03-01T10:27:21;19.80;;;12.00;;
74401;SDS011;62837;51.082;13.744;2023-03-01T10:29:56;16.90;;;10.50;;
74401;SDS011;62837;51.082;13.744;2023-03-01T10:32:35;21.50;;;11.50;;
74401;SDS011;62837;51.082;13.744;2023-03-01T10:35:17;13.70;;;8.30;;
74401;SDS011;62837;51.082;13.744;2023-03-01T10:38:01;18.90;;;10.90;;
74401;SDS011;62837;51.082;13.744;2023-03-01T10:40:35;16.40;;;10.30;;
74401;SDS011;62837;51.082;13.744;2023-03-01T10:43:19;14.80;;;9.50;;
74401;SDS011;62837;51.082;13.744;2023-03-01T10:45:50;21.40;;;10.70;;
74401;SDS011;62837;51.082;13.744;2023-03-01T10:48:23;18.90;;;9.80;;
74401;SDS011;62837;51.082;13.744;2023-03-01T10:51:05;16.70;;;10.00;;
74401;SDS011;62837;51.082;13.744;2023-03-01T10:53:47;15.10;;;8.20;;
74401;SDS011;62837;51.082;13.744;2023-03-01T10:56:19;14.30;;;8.80;;
74401;SDS011;62837;51.082;13.744;2023-03-01T10:58:58;14.70;;;8.60;;
74401;SDS011;62837;51.082;13.744;2023-03-01T11:01:30;17.50;;;9.40;;
74401;SDS011;62837;51.082;13.744;2023-03-01T11:04:11;13.90;;;8.70;;
74401;SDS011;62837;51.082;13.744;2023-03-01T11:06:42;13.60;;;8.60;;
74401;SDS011;62837;51.082;13.744;2023-03-01T11:09:26;14.90;;;9.10;;
74401;SDS011;62837;51.082;13.744;2023-03-01T11:12:11;11.60;;;6.60;;
74401;SDS011;62837;51.082;13.744;2023-03-01T11:14:47;13.70;;;8.00;;
74401;SDS011;62837;51.082;13.744;2023-03-01T11:17:21;16.20;;;8.50;;
74401;SDS011;62837;51.082;13.744;2023-03-01T11:20:04;14.70;;;10.20;;
74401;SDS011;62837;51.082;13.744;2023-03-01T11:22:47;11.60;;;6.80;;
74401;SDS011;62837;51.082;13.744;2023-03-01T11:25:21;15.70;;;8.30;;
74401;SDS011;62837;51.082;13.744;2023-03-01T11:27:56;13.60;;;7.90;;
74401;SDS011;62837;51.082;13.744;2023-03-01T11:30:31;12.70;;;7.50;;
74401;SDS011;62837;51.082;13.744;2023-03-01T11:33:08;14.60;;;9.40;;
74401;SDS011;62837;51.082;13.744;2023-03-01T11:35:47;10.80;;;6.40;;
74401;SDS011;62837;51.082;13.744;2023-03-01T11:38:26;11.70;;;7.20;;
74401;SDS011;62837;51.082;13.744;2023-03-01T11:41:01;11.40;;;6.10;;
74401;SDS011;62837;51.082;13.744;2023-03-01T11:43:37;13.10;;;6.00;;
74401;SDS011;62837;51.082;13.744;2023-03-01T11:46:34;12.90;;;6.30;;
74401;SDS011;62837;51.082;13.744;2023-03-01T11:49:29;10.50;;;5.70;;
74401;SDS011;62837;51.082;13.744;2023-03-01T11:52:24;13.20;;;7.50;;
74401;SDS011;62837;51.082;13.744;2023-03-01T11:55:17;14.40;;;7.30;;
74401;SDS011;62837;51.082;13.744;2023-03-01T11:57:59;13.30;;;6.90;;
74401;SDS011;62837;51.082;13.744;2023-03-01T12:01:10;7.70;;;5.10;;
74401;SDS011;62837;51.082;13.744;2023-03-01T12:03:52;10.80;;;5.70;;
74401;SDS011;62837;51.082;13.744;2023-03-01T12:06:52;11.60;;;5.70;;
74401;SDS011;62837;51.082;13.744;2023-03-01T12:09:33;11.70;;;6.50;;
74401;SDS011;62837;51.082;13.744;2023-03-01T12:12:29;12.70;;;7.00;;
74401;SDS011;62837;51.082;13.744;2023-03-01T12:21:14;12.20;;;7.10;;
74401;SDS011;62837;51.082;13.744;2023-03-01T12:23:59;11.20;;;7.00;;
74401;SDS011;62837;51.082;13.744;2023-03-01T12:26:55;15.60;;;9.20;;
74401;SDS011;62837;51.082;13.744;2023-03-01T12:29:42;13.60;;;7.40;;
74401;SDS011;62837;51.082;13.744;2023-03-01T12:32:25;11.50;;;6.40;;
74401;SDS011;62837;51.082;13.744;2023-03-01T12:35:15;16.60;;;9.30;;
74401;SDS011;62837;51.082;13.744;2023-03-01T12:38:01;16.60;;;9.20;;
74401;SDS011;62837;51.082;13.744;2023-03-01T12:40:46;13.40;;;8.00;;
74401;SDS011;62837;51.082;13.744;2023-03-01T12:43:36;17.20;;;9.70;;
74401;SDS011;62837;51.082;13.744;2023-03-01T12:46:21;15.60;;;8.80;;
74401;SDS011;62837;51.082;13.744;2023-03-01T12:49:02;15.30;;;8.20;;
74401;SDS011;62837;51.082;13.744;2023-03-01T12:51:39;16.20;;;8.90;;
74401;SDS011;62837;51.082;13.744;2023-03-01T12:54:14;13.70;;;7.90;;
74401;SDS011;62837;51.082;13.744;2023-03-01T12:56:49;14.30;;;8.20;;
74401;SDS011;62837;51.082;13.744;2023-03-01T12:59:22;14.40;;;9.20;;
74401;SDS011;62837;51.082;13.744;2023-03-01T13:02:03;11.70;;;6.80;;
74401;SDS011;62837;51.082;13.744;2023-03-01T13:04:53;12.50;;;7.50;;
74401;SDS011;62837;51.082;13.744;2023-03-01T13:12:47;13.90;;;7.90;;
74401;SDS011;62837;51.082;13.744;2023-03-01T13:15:32;14.40;;;7.60;;
74401;SDS011;62837;51.082;13.744;2023-03-01T13:18:26;15.10;;;8.40;;
74401;SDS011;62837;51.082;13.744;2023-03-01T13:20:59;18.10;;;8.90;;
74401;SDS011;62837;51.082;13.744;2023-03-01T13:23:34;15.20;;;8.20;;
74401;SDS011;62837;51.082;13.744;2023-03-01T13:26:11;15.70;;;8.20;;
74401;SDS011;62837;51.082;13.744;2023-03-01T13:34:43;15.30;;;8.30;;
74401;SDS011;62837;51.082;13.744;2023-03-01T13:37:28;11.00;;;7.20;;
74401;SDS011;62837;51.082;13.744;2023-03-01T13:43:26;15.80;;;8.40;;
74401;SDS011;62837;51.082;13.744;2023-03-01T13:45:59;14.60;;;7.60;;
74401;SDS011;62837;51.082;13.744;2023-03-01T13:48:36;17.10;;;8.10;;
74401;SDS011;62837;51.082;13.744;2023-03-01T13:51:09;13.50;;;7.10;;
74401;SDS011;62837;51.082;13.744;2023-03-01T13:53:42;15.00;;;7.50;;
74401;SDS011;62837;51.082;13.744;2023-03-01T13:56:16;15.90;;;8.40;;
74401;SDS011;62837;51.082;13.744;2023-03-01T13:58:49;14.20;;;8.00;;
74401;SDS011;62837;51.082;13.744;2023-03-01T14:01:22;7.70;;;3.60;;
74401;SDS011;62837;51.082;13.744;2023-03-01T14:03:56;14.60;;;8.70;;
74401;SDS011;62837;51.082;13.744;2023-03-01T14:06:29;16.50;;;8.60;;
74401;SDS011;62837;51.082;13.744;2023-03-01T14:09:04;13.90;;;7.50;;
74401;SDS011;62837;51.082;13.744;2023-03-01T14:11:54;12.50;;;7.40;;
74401;SDS011;62837;51.082;13.744;2023-03-01T14:14:38;14.60;;;7.70;;
74401;SDS011;62837;51.082;13.744;2023-03-01T14:20:24;15.20;;;8.40;;
74401;SDS011;62837;51.082;13.744;2023-03-01T14:22:58;16.10;;;7.90;;
74401;SDS011;62837;51.082;13.744;2023-03-01T14:25:32;14.30;;;7.30;;
74401;SDS011;62837;51.082;13.744;2023-03-01T14:28:13;8.10;;;4.50;;
74401;SDS011;62837;51.082;13.744;2023-03-01T14:30:46;14.60;;;8.10;;
74401;SDS011;62837;51.082;13.744;2023-03-01T14:33:20;14.90;;;7.60;;
74401;SDS011;62837;51.082;13.744;2023-03-01T14:35:54;14.40;;;7.50;;
74401;SDS011;62837;51.082;13.744;2023-03-01T14:38:31;12.50;;;6.70;;
74401;SDS011;62837;51.082;13.744;2023-03-01T14:41:05;15.90;;;8.20;;
74401;SDS011;62837;51.082;13.744;2023-03-01T14:43:39;16.00;;;8.70;;
74401;SDS011;62837;51.082;13.744;2023-03-01T14:46:18;15.40;;;8.30;;
74401;SDS011;62837;51.082;13.744;2023-03-01T14:48:53;19.40;;;9.00;;
74401;SDS011;62837;51.082;13.744;2023-03-01T14:51:26;15.60;;;8.40;;
74401;SDS011;62837;51.082;13.744;2023-03-01T14:53:57;16.60;;;9.10;;
74401;SDS011;62837;51.082;13.744;2023-03-01T14:56:28;15.80;;;9.10;;
74401;SDS011;62837;51.082;13.744;2023-03-01T14:59:14;16.20;;;8.70;;
74401;SDS011;62837;51.082;13.744;2023-03-01T15:01:47;10.80;;;6.00;;
74401;SDS011;62837;51.082;13.744;2023-03-01T15:04:19;14.80;;;8.60;;
74401;SDS011;62837;51.082;13.744;2023-03-01T15:09:22;13.40;;;7.10;;
74401;SDS011;62837;51.082;13.744;2023-03-01T15:11:53;15.20;;;8.20;;
74401;SDS011;62837;51.082;13.744;2023-03-01T15:14:28;16.40;;;8.50;;
74401;SDS011;62837;51.082;13.744;2023-03-01T15:17:21;15.70;;;8.60;;
74401;SDS011;62837;51.082;13.744;2023-03-01T15:19:57;16.40;;;8.20;;
74401;SDS011;62837;51.082;13.744;2023-03-01T15:22:29;19.60;;;9.70;;
74401;SDS011;62837;51.082;13.744;2023-03-01T15:25:00;17.70;;;9.40;;
74401;SDS011;62837;51.082;13.744;2023-03-01T15:27:31;16.10;;;8.90;;